Time;durP1;ratioP1;P1;durP2;ratioP2;P2;SDS_P1;SDS_P2;PMS_P1;PMS_P2;Temp;Humidity;BMP_temperature;BMP_pressure;BME280_temperature;BME280_humidity;BME280_pressure;Samples;Min_cycle;Max_cycle;Signal;HPM_P1;HPM_P2
2021/04/23 00:00:08;;;;;;;;;;;;;;;19.55;65.86;101003.34;5026928;28;1590;-59
2021/04/23 00:02:34;;;;;;;;;;;;;;;19.57;66.26;101023.69;5036292;28;1462;-59
2021/04/23 00:05:00;;;;;;;;;;;;;;;19.56;66.12;101027.34;5034404;28;1153;-59
2021/04/23 00:07:26;;;;;;;;;;;;;;;19.57;66.05;101028.19;5030055;28;1379;-59
2021/04/23 00:09:53;;;;;;;;;;;;;;;19.55;66.10;101024.81;5027312;28;1582;-59
2021/04/23 00:12:19;;;;;;;;;;;;;;;19.55;66.34;101030.16;5028914;28;1402;-59
2021/04/23 00:14:46;;;;;;;;;;;;;;;19.55;65.54;101022.13;5031301;28;1627;-59
2021/04/23 00:17:13;;;;;;;;;;;;;;;19.53;66.05;101022.25;5027678;28;1990;-59
2021/04/23 00:19:39;;;;;;;;;;;;;;;19.54;65.46;101023.97;5036576;28;1667;-59
2021/04/23 00:22:06;;;;;;;;;;;;;;;19.54;65.89;101017.75;5032837;28;1593;-59
2021/04/23 00:24:33;;;;;;;;;;;;;;;19.52;65.71;101009.84;5031375;28;1555;-59
2021/04/23 00:27:00;;;;;;;;;;;;;;;19.54;65.45;101018.59;5027254;28;1575;-59
2021/04/23 00:29:26;;;;;;;;;;;;;;;19.51;66.21;101018.84;5026988;28;1646;-59
2021/04/23 00:34:38;;;;;;;;;;;;;;;19.52;65.89;101006.28;5036583;28;1434;-60
2021/04/23 00:37:04;;;;;;;;;;;;;;;19.52;66.24;101030.41;5033270;28;1906;-59
2021/04/23 00:39:30;;;;;;;;;;;;;;;19.52;66.32;101030.41;5031747;28;1451;-59
2021/04/23 00:41:57;;;;;;;;;;;;;;;19.51;66.17;101007.28;5029671;28;1589;-59
2021/04/23 00:44:24;;;;;;;;;;;;;;;19.52;66.13;101007.16;5029775;28;1543;-59
2021/04/23 00:46:50;;;;;;;;;;;;;;;19.51;66.04;101008.13;5024243;28;1482;-59
2021/04/23 00:49:16;;;;;;;;;;;;;;;19.50;66.18;101010.94;5031125;28;1363;-59
2021/04/23 00:51:44;;;;;;;;;;;;;;;19.49;66.12;101026.19;5030967;28;1796;-59
2021/04/23 00:54:10;;;;;;;;;;;;;;;19.50;66.03;101014.47;5025851;28;1512;-59
2021/04/23 00:56:37;;;;;;;;;;;;;;;19.47;66.38;101001.31;5029749;28;1981;-60
2021/04/23 00:59:04;;;;;;;;;;;;;;;19.51;66.40;101004.59;5032930;28;1504;-59
2021/04/23 01:01:33;;;;;;;;;;;;;;;19.48;66.33;101009.25;5027402;28;1446;-59
2021/04/23 01:03:59;;;;;;;;;;;;;;;19.49;66.46;101015.44;5021585;28;1781;-59
2021/04/23 01:06:26;;;;;;;;;;;;;;;19.52;66.14;101014.31;5027096;28;1505;-59
2021/04/23 01:08:53;;;;;;;;;;;;;;;19.47;66.14;101012.88;5032522;28;1542;-59
2021/04/23 01:11:21;;;;;;;;;;;;;;;19.47;66.09;101012.88;5031783;28;1380;-59
2021/04/23 01:13:47;;;;;;;;;;;;;;;19.47;65.96;101018.25;5029291;28;1522;-59
2021/04/23 01:16:15;;;;;;;;;;;;;;;19.48;66.63;101014.59;5029585;28;1977;-59
2021/04/23 01:18:42;;;;;;;;;;;;;;;19.48;66.18;101019.97;5024020;28;1516;-60
2021/04/23 01:21:10;;;;;;;;;;;;;;;19.49;66.44;101028.84;5032591;28;1510;-59
2021/04/23 01:23:37;;;;;;;;;;;;;;;19.47;66.16;101038.88;5032954;28;1361;-59
2021/04/23 01:26:04;;;;;;;;;;;;;;;19.48;66.52;101041.44;5033144;28;1487;-59
2021/04/23 01:28:30;;;;;;;;;;;;;;;19.45;66.42;101028.25;5028584;28;1506;-59
2021/04/23 01:30:56;;;;;;;;;;;;;;;19.45;66.37;101030.94;5029103;28;999;-59
2021/04/23 01:33:23;;;;;;;;;;;;;;;19.46;66.50;101043.41;5022411;28;1777;-59
2021/04/23 01:35:49;;;;;;;;;;;;;;;19.43;66.37;101032.91;5033195;28;2009;-59
2021/04/23 01:38:16;;;;;;;;;;;;;;;19.43;66.66;101038.28;5028479;28;1481;-59
2021/04/23 01:40:42;;;;;;;;;;;;;;;19.46;66.49;101046.06;5030655;28;1465;-59
2021/04/23 01:43:09;;;;;;;;;;;;;;;19.43;66.86;101040.97;5027667;28;1569;-60
2021/04/23 01:45:35;;;;;;;;;;;;;;;19.44;65.92;101052.56;5030699;28;1573;-59
2021/04/23 01:48:01;;;;;;;;;;;;;;;19.44;66.09;101023.91;5027478;28;1454;-59
2021/04/23 01:50:27;;;;;;;;;;;;;;;19.45;66.59;101046.19;5032575;28;1625;-59
2021/04/23 01:52:53;;;;;;;;;;;;;;;19.43;66.23;101032.06;5026217;28;1134;-59
2021/04/23 01:55:22;;;;;;;;;;;;;;;19.43;66.54;101034.75;5022747;28;1711;-59
2021/04/23 01:57:48;;;;;;;;;;;;;;;19.44;66.60;101040.00;5025016;28;1907;-59
2021/04/23 02:02:58;;;;;;;;;;;;;;;19.40;66.20;101029.69;3369275;26;1873;-50
2021/04/23 02:05:27;;;;;;;;;;;;;;;19.41;66.91;101024.16;5050328;28;1621;-50
2021/04/23 02:07:54;;;;;;;;;;;;;;;19.40;66.35;101027.00;5059488;28;1536;-53
2021/04/23 02:10:23;;;;;;;;;;;;;;;19.41;66.52;101031.34;5073168;23;3778;-59
2021/04/23 02:12:49;;;;;;;;;;;;;;;19.40;66.80;101027.00;5028013;28;1799;-59
2021/04/23 02:15:16;;;;;;;;;;;;;;;19.41;66.70;101017.94;5031012;28;1753;-59
2021/04/23 02:17:43;;;;;;;;;;;;;;;19.41;66.24;101023.31;5031763;28;1985;-59
2021/04/23 02:20:11;;;;;;;;;;;;;;;19.42;66.70;101020.50;5032232;28;1457;-59
2021/04/23 02:22:37;;;;;;;;;;;;;;;19.41;66.47;101013.41;5031977;28;1534;-59
2021/04/23 02:25:05;;;;;;;;;;;;;;;19.41;66.83;101018.78;5031215;28;1398;-59
2021/04/23 02:27:31;;;;;;;;;;;;;;;19.41;66.82;101024.16;5030858;28;1565;-59
2021/04/23 02:29:58;;;;;;;;;;;;;;;19.39;66.62;101020.75;5031414;28;1438;-59
2021/04/23 02:32:24;;;;;;;;;;;;;;;19.41;66.80;101029.50;5031616;28;1781;-59
2021/04/23 02:34:50;;;;;;;;;;;;;;;19.65;65.67;101014.97;5031808;28;1833;-59
2021/04/23 02:37:16;;;;;;;;;;;;;;;20.24;63.98;101011.53;5032318;28;1902;-59
2021/04/23 02:39:42;;;;;;;;;;;;;;;20.54;63.22;101011.59;5031761;28;1531;-58
2021/04/23 02:42:08;;;;;;;;;;;;;;;20.26;63.86;101012.25;5031129;28;1396;-59
2021/04/23 02:44:35;;;;;;;;;;;;;;;20.10;64.32;101030.72;5031729;28;1640;-59
2021/04/23 02:47:02;;;;;;;;;;;;;;;20.36;64.39;101038.28;5031120;28;1552;-59
2021/04/23 02:49:28;;;;;;;;;;;;;;;20.51;63.50;101044.94;5031964;28;1450;-59
2021/04/23 02:51:54;;;;;;;;;;;;;;;20.74;63.14;101037.53;5025874;28;1612;-59
2021/04/23 02:54:21;;;;;;;;;;;;;;;21.08;62.73;101031.72;5031714;28;1552;-59
2021/04/23 02:56:47;;;;;;;;;;;;;;;21.23;61.33;101029.47;5031653;28;1976;-59
2021/04/23 02:59:14;;;;;;;;;;;;;;;21.20;62.29;101027.03;5031773;28;1433;-59
2021/04/23 03:01:43;;;;;;;;;;;;;;;21.14;61.99;101030.31;5032135;28;1643;-59
2021/04/23 03:04:09;;;;;;;;;;;;;;;21.29;61.73;101042.34;5031439;28;1511;-59
2021/04/23 03:06:35;;;;;;;;;;;;;;;21.43;60.68;101039.22;5025442;28;1537;-59
2021/04/23 03:09:02;;;;;;;;;;;;;;;21.42;60.81;101050.09;5023783;28;1463;-59
2021/04/23 03:11:28;;;;;;;;;;;;;;;21.40;61.30;101033.25;5012695;28;1676;-59
2021/04/23 03:13:56;;;;;;;;;;;;;;;21.42;60.93;101042.84;5011984;28;1717;-59
2021/04/23 03:16:23;;;;;;;;;;;;;;;21.38;60.88;101054.91;5003105;28;1906;-59
2021/04/23 03:18:51;;;;;;;;;;;;;;;21.43;61.62;101060.75;5009701;28;1509;-59
2021/04/23 03:21:18;;;;;;;;;;;;;;;21.44;61.44;101070.50;5011464;28;1749;-59
2021/04/23 03:23:45;;;;;;;;;;;;;;;21.43;61.02;101067.97;5011576;28;1576;-59
2021/04/23 03:26:11;;;;;;;;;;;;;;;21.47;61.33;101071.19;5011790;28;1380;-59
2021/04/23 03:28:39;;;;;;;;;;;;;;;21.45;60.81;101080.28;5011410;28;1878;-59
2021/04/23 03:31:05;;;;;;;;;;;;;;;21.50;61.21;101073.63;5012457;28;1067;-59
2021/04/23 03:33:32;;;;;;;;;;;;;;;21.49;61.47;101088.03;5011870;28;1654;-59
2021/04/23 03:35:59;;;;;;;;;;;;;;;21.50;61.40;101089.75;5011438;28;1981;-59
2021/04/23 03:38:29;;;;;;;;;;;;;;;21.16;62.09;101092.88;5008085;28;1584;-59
2021/04/23 03:40:55;;;;;;;;;;;;;;;20.75;63.33;101097.50;5011289;28;1486;-59
2021/04/23 03:43:21;;;;;;;;;;;;;;;20.65;63.18;101110.91;5016069;28;1059;-59
2021/04/23 03:45:48;;;;;;;;;;;;;;;20.89;62.80;101102.50;5015204;28;1814;-59
2021/04/23 03:48:15;;;;;;;;;;;;;;;21.10;61.75;101098.81;5015508;28;1461;-59
2021/04/23 03:50:41;;;;;;;;;;;;;;;21.48;61.34;101118.66;5013974;28;1616;-59
2021/04/23 03:53:10;;;;;;;;;;;;;;;21.77;60.25;101114.06;5012387;28;1362;-59
2021/04/23 03:55:38;;;;;;;;;;;;;;;21.74;60.20;101103.56;5011800;28;1487;-59
2021/04/23 03:58:05;;;;;;;;;;;;;;;21.19;61.76;101097.97;5014954;28;1908;-59
2021/04/23 04:00:32;;;;;;;;;;;;;;;20.83;62.86;101119.16;5014588;28;1383;-59
2021/04/23 04:02:58;;;;;;;;;;;;;;;20.62;63.23;101128.16;5014820;28;1511;-60
2021/04/23 04:05:24;;;;;;;;;;;;;;;20.53;64.12;101120.91;5015638;28;1442;-62
2021/04/23 04:07:51;;;;;;;;;;;;;;;20.43;63.86;101126.25;5014012;28;1510;-59
2021/04/23 04:10:18;;;;;;;;;;;;;;;20.36;64.11;101129.63;5009623;28;1614;-59
2021/04/23 04:12:45;;;;;;;;;;;;;;;20.29;64.29;101141.88;5014767;28;1316;-59
2021/04/23 04:15:11;;;;;;;;;;;;;;;20.23;64.80;101144.13;5014251;28;1424;-62
2021/04/23 04:17:37;;;;;;;;;;;;;;;20.20;64.48;101146.22;5013932;28;1910;-62
2021/04/23 04:20:04;;;;;;;;;;;;;;;20.15;64.85;101126.97;5015012;28;1822;-59
2021/04/23 04:22:30;;;;;;;;;;;;;;;20.13;64.72;101139.69;5011796;28;1821;-62
2021/04/23 04:24:56;;;;;;;;;;;;;;;20.10;64.59;101146.19;5000302;28;1605;-59
2021/04/23 04:27:23;;;;;;;;;;;;;;;20.08;65.14;101136.56;5011575;28;1265;-62
2021/04/23 04:29:49;;;;;;;;;;;;;;;20.09;64.78;101141.78;5014383;28;1890;-58
2021/04/23 04:32:16;;;;;;;;;;;;;;;20.09;64.58;101141.78;5007349;28;1446;-62
2021/04/23 04:34:42;;;;;;;;;;;;;;;20.02;64.44;101124.53;5002983;28;1459;-59
2021/04/23 04:37:08;;;;;;;;;;;;;;;20.00;64.20;101137.22;5007758;28;1971;-59
2021/04/23 04:39:34;;;;;;;;;;;;;;;20.01;65.23;101134.38;5013533;28;1416;-61
2021/04/23 04:42:01;;;;;;;;;;;;;;;20.09;65.36;101140.94;5013700;28;1758;-61
2021/04/23 04:44:28;;;;;;;;;;;;;;;19.99;65.55;101135.50;5014447;28;1560;-59
2021/04/23 04:46:54;;;;;;;;;;;;;;;19.97;65.64;101145.53;5004759;28;1662;-59
2021/04/23 04:49:21;;;;;;;;;;;;;;;19.95;65.77;101140.28;5011743;28;1308;-61
2021/04/23 04:51:47;;;;;;;;;;;;;;;19.91;66.36;101144.22;5011904;28;1268;-60
2021/04/23 04:54:13;;;;;;;;;;;;;;;19.89;66.41;101142.66;5007824;28;1320;-60
2021/04/23 04:56:39;;;;;;;;;;;;;;;19.88;66.63;101149.03;5009826;28;1902;-62
2021/04/23 04:59:05;;;;;;;;;;;;;;;19.87;66.49;101148.16;5012585;28;1417;-61
2021/04/23 05:01:32;;;;;;;;;;;;;;;19.84;66.21;101151.13;5013879;28;1436;-60
2021/04/23 05:03:58;;;;;;;;;;;;;;;19.88;66.78;101149.03;5015453;28;1542;-60
2021/04/23 05:06:24;;;;;;;;;;;;;;;19.84;65.87;101141.22;5013649;28;1594;-60
2021/04/23 05:08:51;;;;;;;;;;;;;;;19.71;66.57;101159.34;5014798;28;1497;-63
2021/04/23 05:11:17;;;;;;;;;;;;;;;19.67;66.17;101158.72;5012950;28;1517;-62
2021/04/23 05:13:43;;;;;;;;;;;;;;;19.68;65.72;101164.97;5011526;28;1521;-61
2021/04/23 05:16:09;;;;;;;;;;;;;;;19.61;66.28;101153.88;5012174;28;1911;-62
2021/04/23 05:18:36;;;;;;;;;;;;;;;19.62;66.39;101171.69;5015731;28;1099;-59
2021/04/23 05:21:03;;;;;;;;;;;;;;;19.63;66.37;101167.16;5015170;28;1676;-63
2021/04/23 05:23:29;;;;;;;;;;;;;;;19.69;66.67;101161.28;5014863;28;1505;-63
2021/04/23 05:25:55;;;;;;;;;;;;;;;19.64;66.48;101168.88;5014559;28;1469;-59
2021/04/23 05:28:21;;;;;;;;;;;;;;;19.65;66.40;101178.63;5006685;28;1490;-68
2021/04/23 05:30:47;;;;;;;;;;;;;;;19.63;66.35;101178.75;5013696;28;1519;-60
2021/04/23 05:33:13;;;;;;;;;;;;;;;19.56;66.64;101190.16;5011622;28;1675;-60
2021/04/23 05:35:41;;;;;;;;;;;;;;;19.50;66.95;101186.16;5013674;28;1718;-60
2021/04/23 05:38:07;;;;;;;;;;;;;;;19.45;66.66;101181.16;5012872;28;1975;-64
2021/04/23 05:40:35;;;;;;;;;;;;;;;19.43;66.93;101172.38;5013929;28;1446;-60
2021/04/23 05:43:01;;;;;;;;;;;;;;;19.43;66.88;101193.00;5014143;28;1715;-60
2021/04/23 05:45:27;;;;;;;;;;;;;;;19.43;67.01;101193.00;5015022;28;1726;-60
2021/04/23 05:47:54;;;;;;;;;;;;;;;19.42;66.95;101202.88;5014682;28;1647;-65
2021/04/23 05:50:22;;;;;;;;;;;;;;;19.39;67.06;101197.75;5015737;28;1060;-60
2021/04/23 05:52:49;;;;;;;;;;;;;;;19.40;66.83;101188.75;5014235;28;1802;-64
2021/04/23 05:55:17;;;;;;;;;;;;;;;19.39;66.85;101192.38;5014510;28;1797;-65
2021/04/23 05:57:43;;;;;;;;;;;;;;;19.38;66.76;101204.13;5014678;28;1902;-60
2021/04/23 06:00:11;;;;;;;;;;;;;;;19.37;66.28;101194.34;5013854;28;1355;-63
2021/04/23 06:02:37;;;;;;;;;;;;;;;19.36;66.29;101197.16;5007475;28;1503;-60
2021/04/23 06:05:04;;;;;;;;;;;;;;;19.36;66.89;101198.03;5014441;28;1050;-60
2021/04/23 06:07:30;;;;;;;;;;;;;;;19.35;66.93;101201.66;5014585;28;1477;-60
2021/04/23 06:09:57;;;;;;;;;;;;;;;19.36;67.10;101200.72;5014070;28;1591;-60
2021/04/23 06:12:23;;;;;;;;;;;;;;;19.34;66.43;101194.63;5012451;28;1616;-60
2021/04/23 06:14:49;;;;;;;;;;;;;;;19.34;66.58;101201.78;5011128;28;1318;-60
2021/04/23 06:17:15;;;;;;;;;;;;;;;19.34;66.81;101199.09;5011779;28;1902;-60
2021/04/23 06:19:41;;;;;;;;;;;;;;;19.35;66.86;101203.50;5006672;28;1327;-65
2021/04/23 06:22:08;;;;;;;;;;;;;;;19.35;66.96;101212.41;5008256;28;1369;-65
2021/04/23 06:24:34;;;;;;;;;;;;;;;19.32;66.43;101207.31;5011616;28;1413;-60
2021/04/23 06:27:01;;;;;;;;;;;;;;;19.33;66.61;101209.00;5010875;28;1457;-64
2021/04/23 06:29:28;;;;;;;;;;;;;;;19.31;66.61;101205.59;5009705;28;1386;-65
2021/04/23 06:31:55;;;;;;;;;;;;;;;19.31;66.92;101210.09;5010822;28;1457;-65
2021/04/23 06:34:20;;;;;;;;;;;;;;;19.28;66.80;101208.53;5007045;28;1117;-65
2021/04/23 06:36:47;;;;;;;;;;;;;;;19.31;66.65;101216.31;5008602;28;1914;-60
2021/04/23 06:39:14;;;;;;;;;;;;;;;19.31;66.80;101204.75;5013691;28;1399;-65
2021/04/23 06:41:40;;;;;;;;;;;;;;;19.30;67.22;101227.16;5007439;28;1366;-63
2021/04/23 06:44:07;;;;;;;;;;;;;;;19.28;66.76;101216.59;5009682;28;1493;-65
2021/04/23 06:46:33;;;;;;;;;;;;;;;19.29;66.77;101234.34;5012363;28;1439;-60
2021/04/23 06:48:59;;;;;;;;;;;;;;;19.27;66.76;101229.13;5014822;28;1066;-60
2021/04/23 06:51:25;;;;;;;;;;;;;;;19.28;66.91;101244.25;5011449;28;2276;-64
2021/04/23 06:53:51;;;;;;;;;;;;;;;19.26;66.97;101240.84;5007341;28;1436;-60
2021/04/23 06:56:17;;;;;;;;;;;;;;;19.25;66.84;101246.31;5011143;28;1894;-60
2021/04/23 06:58:46;;;;;;;;;;;;;;;19.26;66.83;101240.00;5008353;28;1395;-60
2021/04/23 07:01:13;;;;;;;;;;;;;;;19.24;67.06;101232.06;5013798;28;1707;-60
2021/04/23 07:03:41;;;;;;;;;;;;;;;19.23;67.00;101229.50;5013685;28;1611;-59
2021/04/23 07:06:07;;;;;;;;;;;;;;;19.24;67.19;101225.84;5004305;28;1440;-59
2021/04/23 07:08:33;;;;;;;;;;;;;;;19.22;66.89;101243.91;5009136;28;1474;-60
2021/04/23 07:10:59;;;;;;;;;;;;;;;19.24;67.04;101244.63;5003766;28;1361;-64
2021/04/23 07:13:25;;;;;;;;;;;;;;;19.24;67.07;101241.94;5003767;28;1282;-59
2021/04/23 07:15:51;;;;;;;;;;;;;;;19.22;67.21;101243.91;4998295;28;1249;-60
2021/04/23 07:18:18;;;;;;;;;;;;;;;19.21;67.21;101259.13;5012656;28;3046;-64
2021/04/23 07:20:44;;;;;;;;;;;;;;;19.21;66.89;101243.03;5001416;28;1500;-65
2021/04/23 07:23:10;;;;;;;;;;;;;;;19.22;67.01;101258.16;5012837;28;1490;-64
2021/04/23 07:25:37;;;;;;;;;;;;;;;19.22;66.94;101243.91;5004118;28;1693;-60
2021/04/23 07:28:03;;;;;;;;;;;;;;;19.20;66.85;101253.88;5009582;28;1662;-60
2021/04/23 07:30:30;;;;;;;;;;;;;;;19.21;67.13;101266.31;5010969;28;1685;-60
2021/04/23 07:32:57;;;;;;;;;;;;;;;19.19;66.97;101255.72;5004107;28;1631;-60
2021/04/23 07:35:24;;;;;;;;;;;;;;;19.19;66.86;101260.22;5012300;28;1315;-64
2021/04/23 07:37:51;;;;;;;;;;;;;;;19.24;67.21;101248.16;5006704;28;2005;-64
2021/04/23 07:40:19;;;;;;;;;;;;;;;19.28;66.75;101270.22;5006899;28;1658;-64
2021/04/23 07:42:45;;;;;;;;;;;;;;;19.32;66.82;101271.66;5007781;28;1289;-64
2021/04/23 07:45:12;;;;;;;;;;;;;;;19.34;66.56;101280.44;5005699;28;1406;-60
2021/04/23 07:47:38;;;;;;;;;;;;;;;19.34;66.58;101282.25;5008541;28;1626;-64
2021/04/23 07:50:06;;;;;;;;;;;;;;;19.35;66.59;101266.03;5005938;28;1165;-60
2021/04/23 07:52:33;;;;;;;;;;;;;;;19.31;66.62;101275.31;5002048;28;1217;-60
2021/04/23 07:55:01;;;;;;;;;;;;;;;19.33;66.75;101284.06;5007252;28;1461;-64
2021/04/23 07:57:27;;;;;;;;;;;;;;;19.32;66.68;101277.03;5005828;28;1906;-64
2021/04/23 07:59:53;;;;;;;;;;;;;;;19.31;66.70;101283.34;5009789;28;1181;-60
2021/04/23 08:02:20;;;;;;;;;;;;;;;19.31;66.71;101286.03;5012022;28;1802;-60
2021/04/23 08:04:46;;;;;;;;;;;;;;;19.30;66.46;101278.97;5010098;28;1691;-64
2021/04/23 08:07:12;;;;;;;;;;;;;;;19.31;66.39;101290.56;5007132;28;1293;-60
2021/04/23 08:09:40;;;;;;;;;;;;;;;19.30;66.56;101289.72;5009117;28;1318;-60
2021/04/23 08:12:06;;;;;;;;;;;;;;;19.30;66.93;101297.75;5003747;28;1357;-64
2021/04/23 08:14:32;;;;;;;;;;;;;;;19.31;66.41;101299.44;5004362;28;1418;-64
2021/04/23 08:16:58;;;;;;;;;;;;;;;19.31;66.91;101307.50;5007042;28;1902;-59
2021/04/23 08:19:25;;;;;;;;;;;;;;;19.27;66.53;101300.66;5012020;28;1509;-60
2021/04/23 08:21:51;;;;;;;;;;;;;;;19.23;66.79;101309.94;5008003;28;1366;-59
2021/04/23 08:24:17;;;;;;;;;;;;;;;19.22;67.00;101308.25;5006384;28;1443;-65
2021/04/23 08:26:44;;;;;;;;;;;;;;;19.29;66.71;101314.81;5002075;28;1624;-63
2021/04/23 08:29:11;;;;;;;;;;;;;;;19.24;66.96;101322.38;5006888;28;1379;-63
2021/04/23 08:31:37;;;;;;;;;;;;;;;19.17;65.01;101327.38;5007459;28;1367;-64
2021/04/23 08:34:04;;;;;;;;;;;;;;;18.95;64.80;101317.50;5011954;28;1407;-61
2021/04/23 08:36:29;;;;;;;;;;;;;;;18.97;64.85;101315.56;5009472;28;1976;-60
2021/04/23 08:38:56;;;;;;;;;;;;;;;19.02;64.22;101316.06;5005483;28;1408;-61
2021/04/23 08:41:22;;;;;;;;;;;;;;;19.01;63.67;101318.84;5006510;28;1315;-61
2021/04/23 08:43:49;;;;;;;;;;;;;;;18.94;64.35;101320.31;5010321;28;1409;-60
2021/04/23 08:46:15;;;;;;;;;;;;;;;18.91;64.13;101321.41;5011028;28;1381;-60
2021/04/23 08:48:42;;;;;;;;;;;;;;;18.94;64.23;101314.94;5009664;28;1198;-61
2021/04/23 08:51:08;;;;;;;;;;;;;;;18.97;63.79;101310.19;5009848;28;1459;-61
2021/04/23 08:53:34;;;;;;;;;;;;;;;18.93;63.91;101308.75;5002480;28;1412;-60
2021/04/23 08:56:00;;;;;;;;;;;;;;;18.94;63.21;101305.09;5007623;28;1495;-61
2021/04/23 08:58:27;;;;;;;;;;;;;;;19.01;64.38;101302.78;5009721;28;1902;-61
2021/04/23 09:00:54;;;;;;;;;;;;;;;18.47;64.78;101304.28;5005524;28;1755;-60
2021/04/23 09:03:22;;;;;;;;;;;;;;;18.84;65.09;101309.47;4999074;28;1679;-61
2021/04/23 09:06:03;;;;;;;;;;;;;;;19.00;64.14;101304.59;5008047;28;1363;-60
2021/04/23 09:08:29;;;;;;;;;;;;;;;19.08;64.33;101306.69;5006866;28;1864;-62
2021/04/23 09:10:55;;;;;;;;;;;;;;;19.18;64.30;101296.03;5006800;28;1493;-63
2021/04/23 09:13:21;;;;;;;;;;;;;;;19.19;63.64;101292.41;5008773;28;1248;-64
2021/04/23 09:15:47;;;;;;;;;;;;;;;19.17;63.67;101302.41;5007742;28;1405;-63
2021/04/23 09:18:15;;;;;;;;;;;;;;;19.15;63.29;101301.66;5009133;28;1958;-62
2021/04/23 09:20:43;;;;;;;;;;;;;;;19.12;63.57;101296.53;5009245;28;1433;-63
2021/04/23 09:23:10;;;;;;;;;;;;;;;19.19;64.55;101290.56;5007364;28;1443;-64
2021/04/23 09:25:43;;;;;;;;;;;;;;;19.18;63.66;101279.94;5009598;28;1343;-64
2021/04/23 09:28:09;;;;;;;;;;;;;;;19.18;63.41;101288.88;4998287;28;1518;-62
2021/04/23 09:30:36;;;;;;;;;;;;;;;19.13;63.77;101268.75;5005482;28;1609;-62
2021/04/23 09:33:02;;;;;;;;;;;;;;;19.17;64.17;101273.75;5010517;28;1392;-62
2021/04/23 09:35:29;;;;;;;;;;;;;;;19.17;64.25;101265.69;5009554;28;1436;-62
2021/04/23 09:37:58;;;;;;;;;;;;;;;19.18;65.07;101267.44;5006727;28;1914;-65
2021/04/23 09:40:25;;;;;;;;;;;;;;;19.21;64.48;101269.00;5005263;28;1431;-65
2021/04/23 09:42:53;;;;;;;;;;;;;;;19.23;64.55;101251.78;5004927;28;1228;-64
2021/04/23 09:45:20;;;;;;;;;;;;;;;19.24;64.51;101260.72;5007471;28;1448;-62
2021/04/23 09:47:47;;;;;;;;;;;;;;;19.26;64.72;101261.44;5007259;28;1872;-64
2021/04/23 09:50:14;;;;;;;;;;;;;;;19.25;64.61;101265.09;5010511;28;1446;-64
2021/04/23 09:52:49;;;;;;;;;;;;;;;19.24;64.82;101253.50;5006135;28;1746;-65
2021/04/23 09:55:16;;;;;;;;;;;;;;;19.24;64.73;101263.41;5002991;28;1244;-66
2021/04/23 09:57:48;;;;;;;;;;;;;;;19.24;64.69;101248.16;5003457;28;1906;-63
2021/04/23 10:00:15;;;;;;;;;;;;;;;19.25;64.59;101246.31;5006121;28;1533;-62
2021/04/23 10:02:41;;;;;;;;;;;;;;;19.24;64.53;101244.63;5001218;28;1503;-61
2021/04/23 10:05:07;;;;;;;;;;;;;;;19.27;64.77;101252.41;5007358;28;1244;-63
2021/04/23 10:07:34;;;;;;;;;;;;;;;19.26;64.82;101251.56;5007827;28;1495;-64
2021/04/23 10:10:03;;;;;;;;;;;;;;;19.33;64.74;101246.53;5001711;28;1520;-63
2021/04/23 10:12:33;;;;;;;;;;;;;;;19.32;64.74;101243.97;5003231;28;1614;-68
2021/04/23 10:15:01;;;;;;;;;;;;;;;19.34;64.96;101242.00;4999396;28;1542;-63
2021/04/23 10:17:27;;;;;;;;;;;;;;;19.38;64.91;101238.97;5005214;28;1926;-70
2021/04/23 10:19:54;;;;;;;;;;;;;;;19.39;64.87;101240.66;5002442;28;1387;-64
2021/04/23 10:22:21;;;;;;;;;;;;;;;19.35;64.85;101244.56;5007149;28;1732;-63
2021/04/23 10:24:48;;;;;;;;;;;;;;;19.40;64.83;101241.53;5006794;28;1361;-61
2021/04/23 10:27:15;;;;;;;;;;;;;;;19.39;65.04;101239.81;5005096;28;1448;-61
2021/04/23 10:29:43;;;;;;;;;;;;;;;19.41;65.03;101232.50;5005520;28;1358;-60
2021/04/23 10:32:10;;;;;;;;;;;;;;;19.46;65.20;101227.63;5003239;28;1372;-59
2021/04/23 10:34:36;;;;;;;;;;;;;;;19.47;65.12;101235.50;5005645;28;1843;-60
2021/04/23 10:37:02;;;;;;;;;;;;;;;19.48;65.46;101233.72;5006991;28;1898;-58
2021/04/23 10:39:29;;;;;;;;;;;;;;;19.56;64.76;101243.81;5006708;28;1593;-62
2021/04/23 10:41:55;;;;;;;;;;;;;;;19.55;64.85;101234.03;5005964;28;1537;-61
2021/04/23 10:44:22;;;;;;;;;;;;;;;19.58;64.80;101233.78;5005238;28;1317;-60
2021/04/23 10:46:52;;;;;;;;;;;;;;;19.67;64.66;101241.06;5006826;28;1282;-63
2021/04/23 10:49:18;;;;;;;;;;;;;;;19.75;64.43;101248.50;5007100;28;2040;-60
2021/04/23 10:51:45;;;;;;;;;;;;;;;19.80;64.82;101239.09;5008983;28;1831;-60
2021/04/23 10:54:14;;;;;;;;;;;;;;;19.88;64.23;101232.22;5015791;28;1233;-62
2021/04/23 10:56:48;;;;;;;;;;;;;;;19.91;65.03;101234.63;5012437;28;1903;-60
2021/04/23 10:59:28;;;;;;;;;;;;;;;19.98;65.17;101235.84;5007179;28;1315;-61
2021/04/23 11:02:12;;;;;;;;;;;;;;;20.00;64.94;101212.41;5005715;28;1503;-63
2021/04/23 11:04:53;;;;;;;;;;;;;;;20.12;65.41;101214.03;5011830;28;1438;-63
2021/04/23 11:07:19;;;;;;;;;;;;;;;20.19;65.17;101225.06;5012008;28;1280;-59
2021/04/23 11:09:56;;;;;;;;;;;;;;;20.18;65.17;101226.91;5014888;28;1378;-59
2021/04/23 11:12:22;;;;;;;;;;;;;;;20.16;65.50;101212.78;5012383;28;1484;-61
2021/04/23 11:14:49;;;;;;;;;;;;;;;20.19;65.19;101228.63;5014247;28;1470;-62
2021/04/23 11:17:22;;;;;;;;;;;;;;;20.20;65.95;101214.19;5016429;28;1903;-61
2021/04/23 11:19:49;;;;;;;;;;;;;;;20.20;65.05;101216.88;5013773;28;1216;-61
2021/04/23 11:22:15;;;;;;;;;;;;;;;20.24;65.96;101218.31;5014766;28;1357;-61
2021/04/23 11:25:16;;;;;;;;;;;;;;;20.25;65.03;101206.63;5016251;28;1377;-64
2021/04/23 11:28:00;;;;;;;;;;;;;;;20.32;64.79;101203.41;4934332;29;1555;-66
2021/04/23 11:30:28;;;;;;;;;;;;;;;20.35;64.94;101206.66;4933344;29;1476;-60
2021/04/23 11:32:55;;;;;;;;;;;;;;;20.33;65.53;101203.22;4978456;28;1547;-58
2021/04/23 11:35:22;;;;;;;;;;;;;;;20.31;65.08;101182.88;5018514;28;1321;-57
2021/04/23 11:37:49;;;;;;;;;;;;;;;20.33;64.76;101187.13;5014139;28;1944;-63
2021/04/23 11:40:17;;;;;;;;;;;;;;;20.39;65.06;101192.00;5013589;28;1639;-59
2021/04/23 11:42:44;;;;;;;;;;;;;;;20.41;64.70;101183.75;5014956;28;1244;-59
2021/04/23 11:45:12;;;;;;;;;;;;;;;20.41;64.79;101189.13;5012308;28;1284;-61
2021/04/23 11:47:40;;;;;;;;;;;;;;;20.44;65.21;101184.34;5018484;28;1440;-63
2021/04/23 11:50:08;;;;;;;;;;;;;;;20.48;65.55;101178.72;5019491;28;1313;-58
2021/04/23 11:52:35;;;;;;;;;;;;;;;20.55;65.85;101179.88;5018295;28;1370;-59
2021/04/23 11:55:04;;;;;;;;;;;;;;;20.49;65.53;101178.56;5018094;28;1302;-59
2021/04/23 11:57:31;;;;;;;;;;;;;;;20.57;65.54;101173.41;5014789;28;1910;-60
2021/04/23 12:00:02;;;;;;;;;;;;;;;20.42;65.22;101158.63;5018108;28;1612;-61
2021/04/23 12:02:49;;;;;;;;;;;;;;;20.41;64.36;101168.53;5009852;28;1444;-59
2021/04/23 12:05:39;;;;;;;;;;;;;;;20.40;64.34;101168.66;5015815;28;1450;-61
2021/04/23 12:08:07;;;;;;;;;;;;;;;20.29;62.48;101158.84;4994239;28;1354;-60
2021/04/23 12:10:34;;;;;;;;;;;;;;;20.22;64.18;101158.53;5010400;28;1461;-59
2021/04/23 12:13:00;;;;;;;;;;;;;;;20.17;62.85;101158.06;5010596;28;1318;-59
2021/04/23 12:15:28;;;;;;;;;;;;;;;20.17;62.57;101155.38;5015567;28;1781;-61
2021/04/23 12:17:54;;;;;;;;;;;;;;;20.17;61.95;101163.44;5012760;28;1979;-59
2021/04/23 12:20:21;;;;;;;;;;;;;;;20.16;61.99;101159.06;5012137;28;1354;-61
2021/04/23 12:22:48;;;;;;;;;;;;;;;20.13;60.13;101148.56;5014888;28;1762;-60
2021/04/23 12:25:28;;;;;;;;;;;;;;;20.10;62.22;101150.72;5012356;28;1543;-61
2021/04/23 12:27:54;;;;;;;;;;;;;;;20.17;61.06;101149.16;5004452;28;1615;-60
2021/04/23 12:30:35;;;;;;;;;;;;;;;20.01;58.76;101138.91;5012850;28;1257;-60
2021/04/23 12:33:01;;;;;;;;;;;;;;;19.96;53.31;101141.16;5001263;28;1369;-64
2021/04/23 12:35:31;;;;;;;;;;;;;;;19.91;52.31;101127.28;5014673;28;1481;-64
2021/04/23 12:37:57;;;;;;;;;;;;;;;19.83;51.84;101112.69;5012336;28;1981;-66
2021/04/23 12:40:30;;;;;;;;;;;;;;;19.83;51.39;101117.19;5015041;28;1554;-61
2021/04/23 12:42:56;;;;;;;;;;;;;;;19.73;51.02;101111.78;5015757;28;1794;-60
2021/04/23 12:45:22;;;;;;;;;;;;;;;19.65;51.30;101095.44;5013718;28;1299;-62
2021/04/23 12:47:49;;;;;;;;;;;;;;;19.69;52.63;101088.84;5005297;28;1419;-61
2021/04/23 12:50:15;;;;;;;;;;;;;;;19.75;53.42;101087.50;5008177;28;1444;-61
2021/04/23 12:52:44;;;;;;;;;;;;;;;19.80;53.83;101093.34;5011336;28;1386;-60